OIKB

Bandar Abbas International Airport

Airport
ICAO code
OIKB
IATA Code
BND
Summary
ICAO Region
MID
ICAO Territory
Location

Bandar Abbas, Homozgan

Serving
Bandar Abbas
Elevation
22 ft
Coordinates
27° 12' 34" N , 56° 22' 8" E
KCC
Metar
Observation
OIKB 011400Z 25006KT CAVOK 26/20 Q1012 A2991 NOSIG
Station
Bandarabbass
Date/Time
2022-12-01 14:00:00
Wind direction
250°
Wind speed
06 kts
Lowest cloud amount
clouds and visibility OK
Temperature
26°C
Dew point
20°C
Humidity
69%
QNH
1012 hPa
Weather condition
n/a

International airport on eastern side of the city of Bandar Abbas, Iran.

Climatology

Warm desert climate (Köppen climate classification BWh).

Runways

Designator Length Width Surface Rops
03L/21R 3457 30 ASP Yes/Yes
03R/21L 3660 45 ASP Yes/Yes

Airport map

Aerial View

SKYbrary Partners:

Safety knowledge contributed by: